sensor_id;sensor_type;location;lat;lon;timestamp;pressure;altitude;pressure_sealevel;temperature;humidity
21547;BME280;41275;51.912;4.388;2022-09-14T00:00:48;100910.16;;;24.16;44.37
21547;BME280;41275;51.912;4.388;2022-09-14T00:06:13;100902.81;;;24.17;44.39
21547;BME280;41275;51.912;4.388;2022-09-14T00:11:35;100892.34;;;24.15;44.19
21547;BME280;41275;51.912;4.388;2022-09-14T00:16:57;100895.38;;;24.14;44.00
21547;BME280;41275;51.912;4.388;2022-09-14T00:22:18;100893.13;;;24.16;43.87
21547;BME280;41275;51.912;4.388;2022-09-14T00:27:39;100891.09;;;24.21;43.94
21547;BME280;41275;51.912;4.388;2022-09-14T00:33:01;100883.94;;;24.25;43.86
21547;BME280;41275;51.912;4.388;2022-09-14T00:38:24;100883.44;;;24.23;43.75
21547;BME280;41275;51.912;4.388;2022-09-14T00:49:42;100860.69;;;24.16;44.16
21547;BME280;41275;51.912;4.388;2022-09-14T00:55:06;100842.38;;;24.04;44.21
21547;BME280;41275;51.912;4.388;2022-09-14T01:00:29;100843.84;;;24.02;44.28
21547;BME280;41275;51.912;4.388;2022-09-14T01:06:00;100831.56;;;24.04;44.40
21547;BME280;41275;51.912;4.388;2022-09-14T01:17:46;100820.47;;;24.06;44.30
21547;BME280;41275;51.912;4.388;2022-09-14T01:23:26;100816.81;;;24.10;44.42
21547;BME280;41275;51.912;4.388;2022-09-14T01:28:58;100818.72;;;24.10;44.74
21547;BME280;41275;51.912;4.388;2022-09-14T01:34:32;100821.56;;;24.05;44.73
21547;BME280;41275;51.912;4.388;2022-09-14T01:40:02;100808.19;;;24.08;45.00
21547;BME280;41275;51.912;4.388;2022-09-14T01:45:27;100813.78;;;24.03;44.45
21547;BME280;41275;51.912;4.388;2022-09-14T01:50:53;100802.47;;;24.01;44.72
21547;BME280;41275;51.912;4.388;2022-09-14T01:56:19;100794.69;;;23.99;44.53
21547;BME280;41275;51.912;4.388;2022-09-14T02:01:53;100792.28;;;23.89;44.41
21547;BME280;41275;51.912;4.388;2022-09-14T02:07:16;100773.84;;;23.83;44.78
21547;BME280;41275;51.912;4.388;2022-09-14T02:12:39;100767.66;;;23.82;44.70
21547;BME280;41275;51.912;4.388;2022-09-14T02:18:00;100771.28;;;23.77;44.95
21547;BME280;41275;51.912;4.388;2022-09-14T02:23:22;100765.09;;;23.77;45.14
21547;BME280;41275;51.912;4.388;2022-09-14T02:28:43;100760.47;;;23.77;45.29
21547;BME280;41275;51.912;4.388;2022-09-14T02:34:36;100764.16;;;23.82;45.21
21547;BME280;41275;51.912;4.388;2022-09-14T02:51:17;100740.94;;;23.81;44.90
21547;BME280;41275;51.912;4.388;2022-09-14T02:56:40;100742.22;;;23.74;45.34
21547;BME280;41275;51.912;4.388;2022-09-14T03:02:02;100733.44;;;23.77;45.09
21547;BME280;41275;51.912;4.388;2022-09-14T03:07:23;100723.44;;;23.69;45.55
21547;BME280;41275;51.912;4.388;2022-09-14T03:12:44;100719.94;;;23.69;45.58
21547;BME280;41275;51.912;4.388;2022-09-14T03:18:06;100703.75;;;23.69;46.09
21547;BME280;41275;51.912;4.388;2022-09-14T03:23:28;100707.09;;;23.74;46.02
21547;BME280;41275;51.912;4.388;2022-09-14T03:28:50;100708.66;;;23.84;46.11
21547;BME280;41275;51.912;4.388;2022-09-14T03:34:12;100710.59;;;23.75;45.96
21547;BME280;41275;51.912;4.388;2022-09-14T03:39:33;100699.59;;;23.80;45.62
21547;BME280;41275;51.912;4.388;2022-09-14T03:44:54;100702.47;;;23.84;45.08
21547;BME280;41275;51.912;4.388;2022-09-14T03:50:17;100705.19;;;23.84;45.01
21547;BME280;41275;51.912;4.388;2022-09-14T03:55:39;100697.06;;;23.75;44.62
21547;BME280;41275;51.912;4.388;2022-09-14T04:01:05;100698.34;;;23.69;44.62
21547;BME280;41275;51.912;4.388;2022-09-14T04:06:27;100704.22;;;23.71;44.44
21547;BME280;41275;51.912;4.388;2022-09-14T04:11:48;100706.13;;;23.70;44.18
21547;BME280;41275;51.912;4.388;2022-09-14T04:17:09;100716.63;;;23.72;43.68
21547;BME280;41275;51.912;4.388;2022-09-14T04:22:32;100716.63;;;23.72;43.69
21547;BME280;41275;51.912;4.388;2022-09-14T04:27:53;100719.31;;;23.81;43.67
21547;BME280;41275;51.912;4.388;2022-09-14T04:33:15;100710.41;;;23.89;43.15
21547;BME280;41275;51.912;4.388;2022-09-14T04:38:37;100709.47;;;23.93;43.12
21547;BME280;41275;51.912;4.388;2022-09-14T04:43:58;100704.38;;;23.92;43.46
21547;BME280;41275;51.912;4.388;2022-09-14T04:49:19;100703.59;;;23.83;43.79
21547;BME280;41275;51.912;4.388;2022-09-14T04:54:41;100689.59;;;23.72;44.57
21547;BME280;41275;51.912;4.388;2022-09-14T05:00:03;100688.63;;;23.76;44.34
21547;BME280;41275;51.912;4.388;2022-09-14T05:05:24;100688.19;;;23.66;44.25
21547;BME280;41275;51.912;4.388;2022-09-14T05:10:45;100683.06;;;23.56;44.31
21547;BME280;41275;51.912;4.388;2022-09-14T05:16:10;100679.53;;;23.38;44.47
21547;BME280;41275;51.912;4.388;2022-09-14T05:21:35;100681.25;;;23.25;44.85
21547;BME280;41275;51.912;4.388;2022-09-14T05:26:57;100679.84;;;23.19;45.73
21547;BME280;41275;51.912;4.388;2022-09-14T05:32:18;100680.28;;;23.12;46.30
21547;BME280;41275;51.912;4.388;2022-09-14T05:37:39;100696.16;;;23.14;47.03
21547;BME280;41275;51.912;4.388;2022-09-14T05:43:00;100702.66;;;23.13;46.85
21547;BME280;41275;51.912;4.388;2022-09-14T05:48:21;100704.25;;;23.14;46.98
21547;BME280;41275;51.912;4.388;2022-09-14T05:54:01;100690.47;;;23.15;46.85
21547;BME280;41275;51.912;4.388;2022-09-14T05:59:23;100692.03;;;23.08;46.95
21547;BME280;41275;51.912;4.388;2022-09-14T06:04:44;100678.47;;;22.99;46.70
21547;BME280;41275;51.912;4.388;2022-09-14T06:10:06;100677.53;;;22.95;46.40
21547;BME280;41275;51.912;4.388;2022-09-14T06:15:28;100679.94;;;22.96;46.36
21547;BME280;41275;51.912;4.388;2022-09-14T06:20:52;100673.41;;;22.97;46.18
21547;BME280;41275;51.912;4.388;2022-09-14T06:26:33;100673.25;;;23.02;45.88
21547;BME280;41275;51.912;4.388;2022-09-14T06:31:54;100649.63;;;23.08;45.61
21547;BME280;41275;51.912;4.388;2022-09-14T06:37:15;100648.34;;;23.14;45.03
21547;BME280;41275;51.912;4.388;2022-09-14T06:42:36;100657.13;;;23.20;44.64
21547;BME280;41275;51.912;4.388;2022-09-14T06:47:58;100656.97;;;23.34;44.26
21547;BME280;41275;51.912;4.388;2022-09-14T06:53:19;100653.19;;;23.35;43.75
21547;BME280;41275;51.912;4.388;2022-09-14T06:58:41;100652.69;;;23.41;43.81
21547;BME280;41275;51.912;4.388;2022-09-14T07:04:06;100654.59;;;23.49;43.69
21547;BME280;41275;51.912;4.388;2022-09-14T07:09:27;100657.00;;;23.60;43.95
21547;BME280;41275;51.912;4.388;2022-09-14T07:14:48;100659.69;;;23.60;43.28
21547;BME280;41275;51.912;4.388;2022-09-14T07:20:10;100646.03;;;23.65;43.27
21547;BME280;41275;51.912;4.388;2022-09-14T07:25:31;100636.34;;;23.64;43.09
21547;BME280;41275;51.912;4.388;2022-09-14T07:30:52;100642.38;;;23.69;42.76
21547;BME280;41275;51.912;4.388;2022-09-14T07:36:14;100643.22;;;23.70;42.85
21547;BME280;41275;51.912;4.388;2022-09-14T07:41:35;100644.47;;;23.90;42.54
21547;BME280;41275;51.912;4.388;2022-09-14T07:46:56;100647.94;;;23.90;42.74
21547;BME280;41275;51.912;4.388;2022-09-14T07:52:17;100655.44;;;23.76;42.42
21547;BME280;41275;51.912;4.388;2022-09-14T07:57:39;100667.03;;;23.68;42.39
21547;BME280;41275;51.912;4.388;2022-09-14T08:03:00;100661.00;;;23.71;42.37
21547;BME280;41275;51.912;4.388;2022-09-14T08:08:21;100660.34;;;23.91;42.13
21547;BME280;41275;51.912;4.388;2022-09-14T08:13:51;100652.38;;;24.04;42.08
21547;BME280;41275;51.912;4.388;2022-09-14T08:19:15;100638.84;;;24.21;42.25
21547;BME280;41275;51.912;4.388;2022-09-14T08:24:40;100644.81;;;24.35;41.91
21547;BME280;41275;51.912;4.388;2022-09-14T08:30:02;100647.97;;;24.55;41.87
21547;BME280;41275;51.912;4.388;2022-09-14T08:35:24;100649.38;;;24.52;41.48
21547;BME280;41275;51.912;4.388;2022-09-14T08:40:45;100644.97;;;24.47;41.52
21547;BME280;41275;51.912;4.388;2022-09-14T08:46:14;100648.16;;;24.49;41.03
21547;BME280;41275;51.912;4.388;2022-09-14T08:51:39;100643.69;;;24.54;40.97
21547;BME280;41275;51.912;4.388;2022-09-14T08:57:15;100646.69;;;24.61;40.92
21547;BME280;41275;51.912;4.388;2022-09-14T09:08:35;100632.81;;;24.62;41.28
21547;BME280;41275;51.912;4.388;2022-09-14T09:14:00;100631.28;;;24.53;41.28
21547;BME280;41275;51.912;4.388;2022-09-14T09:19:33;100639.50;;;24.56;41.09
21547;BME280;41275;51.912;4.388;2022-09-14T09:24:57;100630.44;;;24.61;41.38
21547;BME280;41275;51.912;4.388;2022-09-14T09:30:19;100643.78;;;24.66;40.88
21547;BME280;41275;51.912;4.388;2022-09-14T09:35:40;100635.16;;;24.72;40.60
21547;BME280;41275;51.912;4.388;2022-09-14T09:46:57;100631.91;;;24.88;40.63
21547;BME280;41275;51.912;4.388;2022-09-14T09:52:19;100626.59;;;24.91;40.48
21547;BME280;41275;51.912;4.388;2022-09-14T09:57:40;100639.09;;;24.75;40.17
21547;BME280;41275;51.912;4.388;2022-09-14T10:03:25;100638.09;;;24.88;40.33
21547;BME280;41275;51.912;4.388;2022-09-14T10:08:46;100637.72;;;24.98;40.51
21547;BME280;41275;51.912;4.388;2022-09-14T10:14:21;100642.84;;;25.21;40.04
21547;BME280;41275;51.912;4.388;2022-09-14T10:31:43;100625.53;;;25.34;39.56
21547;BME280;41275;51.912;4.388;2022-09-14T10:37:15;100638.31;;;25.55;39.99
21547;BME280;41275;51.912;4.388;2022-09-14T10:48:42;100639.75;;;25.52;41.37
21547;BME280;41275;51.912;4.388;2022-09-14T10:54:27;100642.00;;;25.50;41.40
21547;BME280;41275;51.912;4.388;2022-09-14T11:00:10;100645.88;;;25.61;41.01
21547;BME280;41275;51.912;4.388;2022-09-14T11:05:33;100634.72;;;25.84;40.84
21547;BME280;41275;51.912;4.388;2022-09-14T11:11:19;100627.66;;;26.04;40.32
21547;BME280;41275;51.912;4.388;2022-09-14T11:17:04;100624.19;;;26.15;40.27
21547;BME280;41275;51.912;4.388;2022-09-14T11:28:43;100619.53;;;26.04;39.91
21547;BME280;41275;51.912;4.388;2022-09-14T11:34:17;100627.84;;;25.86;40.41
21547;BME280;41275;51.912;4.388;2022-09-14T11:39:47;100632.25;;;25.70;40.72
21547;BME280;41275;51.912;4.388;2022-09-14T11:45:23;100625.50;;;25.76;41.07
21547;BME280;41275;51.912;4.388;2022-09-14T11:50:47;100632.53;;;25.98;40.65
21547;BME280;41275;51.912;4.388;2022-09-14T11:56:24;100627.53;;;26.00;40.54
21547;BME280;41275;51.912;4.388;2022-09-14T12:01:47;100625.81;;;26.41;39.77
21547;BME280;41275;51.912;4.388;2022-09-14T12:07:08;100620.84;;;26.67;39.28
21547;BME280;41275;51.912;4.388;2022-09-14T12:12:31;100623.69;;;26.83;38.93
21547;BME280;41275;51.912;4.388;2022-09-14T12:18:17;100612.00;;;27.07;38.72
21547;BME280;41275;51.912;4.388;2022-09-14T12:29:05;100603.44;;;27.74;36.92
21547;BME280;41275;51.912;4.388;2022-09-14T12:34:31;100604.19;;;28.02;36.84
21547;BME280;41275;51.912;4.388;2022-09-14T12:40:22;100597.00;;;27.66;36.77
21547;BME280;41275;51.912;4.388;2022-09-14T12:45:50;100597.31;;;27.77;36.72
21547;BME280;41275;51.912;4.388;2022-09-14T12:51:19;100591.38;;;28.03;35.29
21547;BME280;41275;51.912;4.388;2022-09-14T12:56:50;100592.88;;;28.32;35.28
21547;BME280;41275;51.912;4.388;2022-09-14T13:07:50;100585.50;;;28.32;34.15
21547;BME280;41275;51.912;4.388;2022-09-14T13:13:21;100586.56;;;28.12;34.13
21547;BME280;41275;51.912;4.388;2022-09-14T13:18:43;100584.00;;;28.03;33.92
21547;BME280;41275;51.912;4.388;2022-09-14T13:24:42;100587.34;;;28.12;33.79
21547;BME280;41275;51.912;4.388;2022-09-14T13:30:20;100585.00;;;28.43;33.52
21547;BME280;41275;51.912;4.388;2022-09-14T13:35:52;100579.00;;;28.88;33.38
21547;BME280;41275;51.912;4.388;2022-09-14T13:41:16;100580.25;;;30.11;31.35
21547;BME280;41275;51.912;4.388;2022-09-14T13:46:38;100579.69;;;30.47;30.64
21547;BME280;41275;51.912;4.388;2022-09-14T14:03:46;100565.78;;;31.13;30.05
21547;BME280;41275;51.912;4.388;2022-09-14T14:09:09;100557.91;;;32.23;28.52
21547;BME280;41275;51.912;4.388;2022-09-14T14:14:31;100549.56;;;33.80;26.62
21547;BME280;41275;51.912;4.388;2022-09-14T14:19:54;100547.06;;;33.03;27.01
21547;BME280;41275;51.912;4.388;2022-09-14T14:25:26;100534.19;;;31.49;29.30
21547;BME280;41275;51.912;4.388;2022-09-14T14:30:49;100540.69;;;32.88;27.65
21547;BME280;41275;51.912;4.388;2022-09-14T14:36:10;100537.28;;;34.99;25.48
21547;BME280;41275;51.912;4.388;2022-09-14T14:41:32;100513.56;;;36.23;23.45
21547;BME280;41275;51.912;4.388;2022-09-14T14:46:53;100513.88;;;34.23;25.12
21547;BME280;41275;51.912;4.388;2022-09-14T14:52:15;100506.75;;;33.18;26.16
21547;BME280;41275;51.912;4.388;2022-09-14T14:57:36;100506.22;;;32.18;27.59
21547;BME280;41275;51.912;4.388;2022-09-14T15:03:00;100502.06;;;31.42;28.71
21547;BME280;41275;51.912;4.388;2022-09-14T15:08:22;100499.00;;;31.14;29.18
21547;BME280;41275;51.912;4.388;2022-09-14T15:13:44;100497.22;;;30.95;29.60
21547;BME280;41275;51.912;4.388;2022-09-14T15:19:05;100491.94;;;30.49;30.35
21547;BME280;41275;51.912;4.388;2022-09-14T15:24:28;100501.19;;;30.41;30.58
21547;BME280;41275;51.912;4.388;2022-09-14T15:29:49;100496.81;;;29.87;30.84
21547;BME280;41275;51.912;4.388;2022-09-14T15:35:12;100488.19;;;29.39;31.49
21547;BME280;41275;51.912;4.388;2022-09-14T15:40:34;100490.81;;;29.12;32.23
21547;BME280;41275;51.912;4.388;2022-09-14T15:46:00;100494.75;;;29.15;32.39
21547;BME280;41275;51.912;4.388;2022-09-14T15:51:22;100497.63;;;29.22;32.54
21547;BME280;41275;51.912;4.388;2022-09-14T15:56:51;100503.13;;;28.86;32.66
21547;BME280;41275;51.912;4.388;2022-09-14T16:02:12;100510.78;;;28.61;33.37
21547;BME280;41275;51.912;4.388;2022-09-14T16:07:33;100513.66;;;28.53;33.52
21547;BME280;41275;51.912;4.388;2022-09-14T16:12:55;100517.22;;;28.22;33.83
21547;BME280;41275;51.912;4.388;2022-09-14T16:18:16;100518.38;;;27.89;34.44
21547;BME280;41275;51.912;4.388;2022-09-14T16:23:42;100532.53;;;27.95;35.45
21547;BME280;41275;51.912;4.388;2022-09-14T16:29:05;100530.31;;;28.16;35.65
21547;BME280;41275;51.912;4.388;2022-09-14T16:34:28;100545.38;;;28.13;35.53
21547;BME280;41275;51.912;4.388;2022-09-14T16:39:49;100554.50;;;27.74;36.29
21547;BME280;41275;51.912;4.388;2022-09-14T16:45:11;100548.88;;;27.38;36.87
21547;BME280;41275;51.912;4.388;2022-09-14T16:50:32;100552.56;;;27.18;37.50
21547;BME280;41275;51.912;4.388;2022-09-14T16:56:06;100558.88;;;26.82;38.27
21547;BME280;41275;51.912;4.388;2022-09-14T17:01:33;100558.31;;;26.64;38.98
21547;BME280;41275;51.912;4.388;2022-09-14T17:06:55;100554.84;;;26.51;39.03
21547;BME280;41275;51.912;4.388;2022-09-14T17:12:16;100557.91;;;26.50;39.22
21547;BME280;41275;51.912;4.388;2022-09-14T17:17:38;100566.44;;;26.27;39.54
21547;BME280;41275;51.912;4.388;2022-09-14T17:22:59;100567.34;;;26.07;39.98
21547;BME280;41275;51.912;4.388;2022-09-14T17:28:22;100566.09;;;26.04;40.35
21547;BME280;41275;51.912;4.388;2022-09-14T17:33:44;100578.19;;;26.07;40.26
21547;BME280;41275;51.912;4.388;2022-09-14T17:39:07;100576.56;;;25.93;40.71
21547;BME280;41275;51.912;4.388;2022-09-14T17:44:28;100578.72;;;25.88;40.54
21547;BME280;41275;51.912;4.388;2022-09-14T17:49:51;100585.28;;;25.66;41.26
21547;BME280;41275;51.912;4.388;2022-09-14T17:55:12;100584.78;;;25.52;41.52
21547;BME280;41275;51.912;4.388;2022-09-14T18:00:34;100586.25;;;25.28;41.83
21547;BME280;41275;51.912;4.388;2022-09-14T18:05:55;100590.38;;;25.05;42.32
21547;BME280;41275;51.912;4.388;2022-09-14T18:11:16;100593.88;;;24.84;43.04
21547;BME280;41275;51.912;4.388;2022-09-14T18:16:38;100602.84;;;24.76;43.00
21547;BME280;41275;51.912;4.388;2022-09-14T18:21:59;100617.66;;;24.70;43.29
21547;BME280;41275;51.912;4.388;2022-09-14T18:27:21;100611.06;;;24.50;43.42
21547;BME280;41275;51.912;4.388;2022-09-14T18:32:42;100611.13;;;24.41;43.34
21547;BME280;41275;51.912;4.388;2022-09-14T18:38:06;100614.28;;;24.35;43.88
21547;BME280;41275;51.912;4.388;2022-09-14T18:43:27;100620.03;;;24.24;44.11
21547;BME280;41275;51.912;4.388;2022-09-14T18:48:52;100620.25;;;24.11;44.19
21547;BME280;41275;51.912;4.388;2022-09-14T18:54:14;100627.59;;;24.02;44.58
21547;BME280;41275;51.912;4.388;2022-09-14T18:59:35;100621.56;;;23.87;44.67
21547;BME280;41275;51.912;4.388;2022-09-14T19:04:56;100621.09;;;23.76;44.87
21547;BME280;41275;51.912;4.388;2022-09-14T19:10:18;100636.53;;;23.67;45.30
21547;BME280;41275;51.912;4.388;2022-09-14T19:15:40;100636.34;;;23.55;45.55
21547;BME280;41275;51.912;4.388;2022-09-14T19:21:09;100637.75;;;23.61;45.28
21547;BME280;41275;51.912;4.388;2022-09-14T19:26:35;100643.31;;;23.56;45.43
21547;BME280;41275;51.912;4.388;2022-09-14T19:31:57;100641.59;;;23.51;45.55
21547;BME280;41275;51.912;4.388;2022-09-14T19:37:18;100645.06;;;23.43;45.48
21547;BME280;41275;51.912;4.388;2022-09-14T19:42:39;100646.03;;;23.39;45.93
21547;BME280;41275;51.912;4.388;2022-09-14T19:48:01;100652.53;;;23.38;45.70
21547;BME280;41275;51.912;4.388;2022-09-14T19:53:22;100654.75;;;23.36;45.97
21547;BME280;41275;51.912;4.388;2022-09-14T19:58:45;100655.72;;;23.31;45.93
21547;BME280;41275;51.912;4.388;2022-09-14T20:04:07;100653.78;;;23.23;46.19
21547;BME280;41275;51.912;4.388;2022-09-14T20:09:30;100660.28;;;23.22;46.33
21547;BME280;41275;51.912;4.388;2022-09-14T20:14:51;100658.69;;;23.12;46.49
21547;BME280;41275;51.912;4.388;2022-09-14T20:20:12;100664.09;;;23.12;46.71
21547;BME280;41275;51.912;4.388;2022-09-14T20:25:35;100666.34;;;23.19;46.55
21547;BME280;41275;51.912;4.388;2022-09-14T20:30:57;100664.91;;;23.30;46.09
21547;BME280;41275;51.912;4.388;2022-09-14T20:36:20;100668.03;;;23.06;46.77
21547;BME280;41275;51.912;4.388;2022-09-14T20:41:42;100673.09;;;22.99;46.88
21547;BME280;41275;51.912;4.388;2022-09-14T20:47:03;100672.19;;;23.12;46.47
21547;BME280;41275;51.912;4.388;2022-09-14T20:52:24;100676.28;;;23.10;46.75
21547;BME280;41275;51.912;4.388;2022-09-14T20:57:45;100672.34;;;23.07;46.77
21547;BME280;41275;51.912;4.388;2022-09-14T21:03:08;100678.81;;;23.06;46.62
21547;BME280;41275;51.912;4.388;2022-09-14T21:08:30;100673.41;;;22.97;46.95
21547;BME280;41275;51.912;4.388;2022-09-14T21:13:54;100691.84;;;22.64;47.73
21547;BME280;41275;51.912;4.388;2022-09-14T21:19:19;100694.47;;;22.55;47.84
21547;BME280;41275;51.912;4.388;2022-09-14T21:24:40;100695.88;;;22.44;48.07
21547;BME280;41275;51.912;4.388;2022-09-14T21:30:01;100700.28;;;22.40;48.59
21547;BME280;41275;51.912;4.388;2022-09-14T21:35:23;100702.03;;;22.45;48.83
21547;BME280;41275;51.912;4.388;2022-09-14T21:40:44;100707.81;;;22.52;48.52
21547;BME280;41275;51.912;4.388;2022-09-14T21:46:07;100703.50;;;22.51;48.58
21547;BME280;41275;51.912;4.388;2022-09-14T21:51:31;100706.53;;;22.58;48.48
21547;BME280;41275;51.912;4.388;2022-09-14T21:56:53;100709.63;;;22.74;48.14
21547;BME280;41275;51.912;4.388;2022-09-14T22:02:14;100702.06;;;23.33;46.87
21547;BME280;41275;51.912;4.388;2022-09-14T22:07:35;100706.84;;;23.27;47.13
21547;BME280;41275;51.912;4.388;2022-09-14T22:12:56;100714.78;;;23.33;46.93
21547;BME280;41275;51.912;4.388;2022-09-14T22:18:18;100708.09;;;23.30;46.61
21547;BME280;41275;51.912;4.388;2022-09-14T22:23:39;100712.88;;;23.24;46.64
21547;BME280;41275;51.912;4.388;2022-09-14T22:29:01;100711.72;;;23.08;46.96
21547;BME280;41275;51.912;4.388;2022-09-14T22:34:22;100719.06;;;22.85;47.12
21547;BME280;41275;51.912;4.388;2022-09-14T22:39:44;100725.53;;;22.75;47.74
21547;BME280;41275;51.912;4.388;2022-09-14T22:45:05;100726.94;;;22.73;47.88
21547;BME280;41275;51.912;4.388;2022-09-14T22:50:27;100720.88;;;22.67;47.67
21547;BME280;41275;51.912;4.388;2022-09-14T22:55:48;100720.81;;;22.59;47.75
21547;BME280;41275;51.912;4.388;2022-09-14T23:01:15;100727.94;;;22.54;47.82
21547;BME280;41275;51.912;4.388;2022-09-14T23:06:40;100733.78;;;22.48;48.23
21547;BME280;41275;51.912;4.388;2022-09-14T23:12:01;100735.00;;;22.42;48.10
21547;BME280;41275;51.912;4.388;2022-09-14T23:17:22;100743.06;;;22.33;48.09
21547;BME280;41275;51.912;4.388;2022-09-14T23:22:44;100735.19;;;22.23;48.55
21547;BME280;41275;51.912;4.388;2022-09-14T23:28:06;100741.50;;;22.18;48.43
21547;BME280;41275;51.912;4.388;2022-09-14T23:33:28;100743.94;;;22.06;48.50
21547;BME280;41275;51.912;4.388;2022-09-14T23:38:50;100744.34;;;21.99;48.51
21547;BME280;41275;51.912;4.388;2022-09-14T23:44:11;100746.19;;;21.90;48.78
21547;BME280;41275;51.912;4.388;2022-09-14T23:49:33;100742.13;;;21.79;48.75
21547;BME280;41275;51.912;4.388;2022-09-14T23:54:54;100746.59;;;21.84;48.44
